Time;durP1;ratioP1;P1;durP2;ratioP2;P2;SDS_P1;SDS_P2;PMS_P1;PMS_P2;Temp;Humidity;BMP_temperature;BMP_pressure;BME280_temperature;BME280_humidity;BME280_pressure;Samples;Min_cycle;Max_cycle;Signal;HPM_P1;HPM_P2
2023/07/25 00:01:05;;;;;;;11.95;6.75;;;;;;;15.77;100.00;98391.00;5071037;28;20036;-36
2023/07/25 00:03:33;;;;;;;10.57;7.05;;;;;;;15.64;100.00;98370.16;5070713;28;20071;-36
2023/07/25 00:06:03;;;;;;;12.20;7.60;;;;;;;15.81;100.00;98402.06;5069154;28;20040;-37
2023/07/25 00:08:29;;;;;;;8.70;6.47;;;;;;;15.76;100.00;98391.94;5069086;28;20218;-37
2023/07/25 00:10:56;;;;;;;10.35;7.10;;;;;;;15.77;100.00;98392.78;5071134;28;20068;-35
2023/07/25 00:13:21;;;;;;;12.18;7.45;;;;;;;15.84;100.00;98404.47;5069736;28;20125;-36
2023/07/25 00:15:47;;;;;;;17.48;7.10;;;;;;;15.87;100.00;98399.00;5068987;28;20400;-37
2023/07/25 00:18:14;;;;;;;12.48;8.05;;;;;;;15.92;100.00;98407.34;5070968;28;20043;-38
2023/07/25 00:20:40;;;;;;;12.77;7.93;;;;;;;15.95;100.00;98397.47;5030900;28;20089;-37
2023/07/25 00:23:06;;;;;;;12.45;8.10;;;;;;;15.98;100.00;98394.59;5069508;28;20036;-37
2023/07/25 00:25:33;;;;;;;16.13;7.75;;;;;;;15.85;100.00;98362.44;5083914;28;20535;-37
2023/07/25 00:27:59;;;;;;;18.23;9.70;;;;;;;16.02;100.00;98384.69;5068393;28;20147;-37
2023/07/25 00:30:25;;;;;;;15.05;9.05;;;;;;;15.94;100.00;98364.34;5068015;28;20146;-36
2023/07/25 00:32:50;;;;;;;13.30;8.73;;;;;;;16.10;100.00;98369.22;5068596;28;20040;-36
2023/07/25 00:35:16;;;;;;;11.98;8.65;;;;;;;16.14;100.00;98351.47;5068479;28;20516;-36
2023/07/25 00:37:42;;;;;;;16.23;9.32;;;;;;;16.16;100.00;98355.66;5052402;28;20511;-37
2023/07/25 00:40:08;;;;;;;18.10;9.77;;;;;;;16.16;100.00;98352.19;5069330;28;20055;-37
2023/07/25 00:42:37;;;;;;;15.40;9.20;;;;;;;16.20;100.00;98350.97;5070128;28;20081;-37
2023/07/25 00:45:03;;;;;;;15.23;9.60;;;;;;;16.25;100.00;98354.09;5068616;28;20597;-37
2023/07/25 00:47:29;;;;;;;15.32;9.45;;;;;;;16.27;100.00;98357.44;5070653;28;20043;-35
2023/07/25 00:49:55;;;;;;;17.92;10.35;;;;;;;16.20;100.00;98324.75;5052117;28;20048;-36
2023/07/25 00:52:21;;;;;;;16.17;9.55;;;;;;;16.38;100.00;98344.31;5070243;28;20389;-37
2023/07/25 00:54:49;;;;;;;15.52;9.00;;;;;;;16.44;100.00;98347.25;5063507;28;20055;-36
2023/07/25 00:57:19;;;;;;;21.27;12.15;;;;;;;16.41;100.00;98336.19;5068733;28;20547;-37
2023/07/25 00:59:46;;;;;;;21.52;12.27;;;;;;;16.43;100.00;98331.66;5068724;28;20134;-37
2023/07/25 01:02:13;;;;;;;16.95;9.93;;;;;;;16.42;100.00;98327.34;5068376;28;20040;-37
2023/07/25 01:04:39;;;;;;;18.52;11.55;;;;;;;16.44;100.00;98330.69;5069775;28;20416;-36
2023/07/25 01:07:06;;;;;;;17.25;9.98;;;;;;;16.45;100.00;98329.72;5085668;28;20094;-36
2023/07/25 01:09:40;;;;;;;17.65;10.45;;;;;;;16.44;100.00;98323.63;5052021;28;20067;-36
2023/07/25 01:12:08;;;;;;;14.35;9.57;;;;;;;16.40;100.00;98314.34;5069779;28;20044;-38
2023/07/25 01:14:34;;;;;;;16.98;10.48;;;;;;;16.35;100.00;98308.66;5051341;28;20040;-36
2023/07/25 01:17:14;;;;;;;20.67;10.18;;;;;;;16.52;100.00;98334.38;5085649;28;20090;-36
2023/07/25 01:19:42;;;;;;;16.48;9.50;;;;;;;16.60;100.00;98340.81;5051304;28;20037;-36
2023/07/25 01:22:09;;;;;;;13.40;9.17;;;;;;;16.65;100.00;98343.91;5068372;28;20144;-37
2023/07/25 01:24:37;;;;;;;19.90;10.48;;;;;;;16.71;100.00;98351.28;5051430;28;20064;-36
2023/07/25 01:27:04;;;;;;;17.00;10.02;;;;;;;16.76;100.00;98347.34;5068767;28;20028;-37
2023/07/25 01:29:30;;;;;;;16.35;9.60;;;;;;;16.56;100.00;98302.63;5068479;28;20500;-37
2023/07/25 01:31:55;;;;;;;17.33;9.88;;;;;;;16.86;100.00;98340.38;5068315;28;20059;-36
2023/07/25 01:34:22;;;;;;;14.93;9.80;;;;;;;16.89;100.00;98336.69;5069311;28;20036;-37
2023/07/25 01:36:47;;;;;;;15.73;9.68;;;;;;;16.86;100.00;98344.78;5047527;28;20052;-37
2023/07/25 01:39:13;;;;;;;17.30;9.95;;;;;;;16.94;100.00;98345.84;5031522;28;20546;-35
2023/07/25 01:41:41;;;;;;;15.23;10.23;;;;;;;16.94;100.00;98355.53;5031054;28;20048;-36
2023/07/25 01:44:06;;;;;;;17.23;9.63;;;;;;;16.97;100.00;98354.41;5048107;28;20045;-36
2023/07/25 01:46:32;;;;;;;13.77;9.30;;;;;;;16.99;100.00;98363.84;5048299;28;20043;-38
2023/07/25 01:48:58;;;;;;;14.38;9.40;;;;;;;17.02;100.00;98360.97;5063691;28;20121;-37
2023/07/25 01:51:26;;;;;;;14.75;9.15;;;;;;;16.81;100.00;98315.47;5067520;28;20048;-37
2023/07/25 01:53:53;;;;;;;13.93;9.00;;;;;;;17.06;100.00;98354.50;5045652;28;20090;-36
2023/07/25 01:56:20;;;;;;;14.82;8.93;;;;;;;16.91;100.00;98335.59;5030954;28;20497;-37
2023/07/25 01:58:46;;;;;;;21.83;10.48;;;;;;;17.09;100.00;98377.91;5031280;28;20048;-37
2023/07/25 02:01:12;;;;;;;23.45;12.23;;;;;;;17.00;100.00;98381.28;5066588;28;20086;-36
2023/07/25 02:03:38;;;;;;;27.38;14.10;;;;;;;16.63;100.00;98341.41;5084512;28;20044;-36
2023/07/25 02:06:04;;;;;;;33.47;14.57;;;;;;;16.86;100.00;98397.28;5067336;28;20040;-37
2023/07/25 02:08:30;;;;;;;30.52;15.02;;;;;;;16.81;100.00;98388.94;5050901;28;20052;-35
2023/07/25 02:10:55;;;;;;;25.83;13.25;;;;;;;16.68;100.00;98389.13;5051002;28;20040;-37
2023/07/25 02:13:21;;;;;;;27.10;15.10;;;;;;;16.50;100.00;98386.13;5067686;28;20048;-36
2023/07/25 02:15:47;;;;;;;28.00;14.27;;;;;;;16.49;100.00;98375.75;5068926;28;20067;-36
2023/07/25 02:18:13;;;;;;;29.67;15.27;;;;;;;16.37;100.00;98403.78;5067435;28;20040;-37
2023/07/25 02:20:39;;;;;;;17.63;10.63;;;;;;;16.23;100.00;98384.81;5055143;28;20041;-36
2023/07/25 02:23:06;;;;;;;7.88;5.82;;;;;;;16.07;100.00;98386.03;5067614;28;20047;-36
2023/07/25 02:25:31;;;;;;;12.20;7.22;;;;;;;15.93;100.00;98383.63;5067531;28;20134;-36
2023/07/25 02:27:57;;;;;;;9.90;5.68;;;;;;;15.81;100.00;98383.72;5067525;28;20181;-37
2023/07/25 02:30:23;;;;;;;15.48;6.18;;;;;;;15.66;100.00;98380.50;5050688;28;20048;-37
2023/07/25 02:32:49;;;;;;;8.63;4.97;;;;;;;15.57;100.00;98370.72;5066821;28;20045;-36
2023/07/25 02:35:15;;;;;;;10.63;5.53;;;;;;;15.45;100.00;98364.56;5067240;28;20044;-37
2023/07/25 02:37:41;;;;;;;9.02;5.93;;;;;;;15.42;100.00;98356.13;5066916;28;20055;-36
2023/07/25 02:40:07;;;;;;;12.82;7.38;;;;;;;15.42;100.00;98363.97;5068605;28;20036;-36
2023/07/25 02:42:33;;;;;;;13.63;7.60;;;;;;;15.40;100.00;98363.25;5067524;28;20040;-36
2023/07/25 02:44:59;;;;;;;10.85;7.15;;;;;;;15.38;100.00;98366.00;5068425;28;20036;-36
2023/07/25 02:47:26;;;;;;;12.10;5.97;;;;;;;15.36;100.00;98367.06;5050638;28;20044;-36
2023/07/25 02:49:51;;;;;;;7.40;4.72;;;;;;;15.31;100.00;98370.00;5067018;28;20083;-36
2023/07/25 02:52:18;;;;;;;9.00;4.90;;;;;;;15.22;100.00;98371.53;5068107;28;20080;-37
2023/07/25 02:54:44;;;;;;;5.60;3.72;;;;;;;15.17;100.00;98371.06;5067111;28;20048;-37
2023/07/25 02:57:10;;;;;;;8.25;3.67;;;;;;;15.12;100.00;98374.97;5049686;28;20155;-37
2023/07/25 02:59:36;;;;;;;8.50;4.30;;;;;;;15.10;100.00;98371.59;5067167;28;20036;-36
2023/07/25 03:02:02;;;;;;;4.30;3.42;;;;;;;15.11;100.00;98368.88;5066644;28;20059;-36
2023/07/25 03:04:28;;;;;;;4.53;3.60;;;;;;;15.06;100.00;98363.16;5068209;28;20051;-35
2023/07/25 03:06:54;;;;;;;5.35;3.20;;;;;;;15.06;100.00;98378.03;5066221;28;20048;-37
2023/07/25 03:09:20;;;;;;;5.43;2.75;;;;;;;15.09;100.00;98368.16;5066633;28;20037;-36
2023/07/25 03:11:46;;;;;;;4.78;3.10;;;;;;;15.09;100.00;98369.94;5050005;28;20045;-36
2023/07/25 03:14:12;;;;;;;6.30;3.00;;;;;;;15.10;100.00;98361.13;5066654;28;20044;-36
2023/07/25 03:16:38;;;;;;;4.72;3.10;;;;;;;15.15;100.00;98359.84;5066994;28;20089;-37
2023/07/25 03:19:04;;;;;;;5.07;3.10;;;;;;;15.16;100.00;98350.22;5066736;28;20048;-36
2023/07/25 03:21:29;;;;;;;4.43;3.15;;;;;;;15.24;100.00;98342.59;5065940;28;20186;-37
2023/07/25 03:23:55;;;;;;;5.60;3.17;;;;;;;15.24;100.00;98345.22;5067722;28;20036;-37
2023/07/25 03:26:21;;;;;;;4.43;2.95;;;;;;;15.28;100.00;98338.84;5070868;28;20565;-37
2023/07/25 03:28:47;;;;;;;4.75;3.28;;;;;;;15.37;100.00;98346.00;5054028;28;20044;-36
2023/07/25 03:31:13;;;;;;;5.60;3.30;;;;;;;15.44;100.00;98341.94;5037462;28;20045;-36
2023/07/25 03:33:39;;;;;;;5.30;3.67;;;;;;;15.56;100.00;98348.09;5069806;28;20043;-36
2023/07/25 03:36:07;;;;;;;8.25;3.80;;;;;;;15.52;100.00;98309.97;5070654;28;20043;-36
2023/07/25 03:38:33;;;;;;;5.57;3.83;;;;;;;15.52;100.00;98299.50;5070113;28;20181;-36
2023/07/25 03:40:59;;;;;;;6.82;3.67;;;;;;;15.82;100.00;98346.94;5070471;28;20068;-36
2023/07/25 03:43:25;;;;;;;6.90;3.75;;;;;;;15.84;100.00;98341.56;5070608;28;20142;-37
2023/07/25 03:45:51;;;;;;;7.97;4.38;;;;;;;15.81;100.00;98347.03;5053374;28;20040;-37
2023/07/25 03:48:16;;;;;;;11.77;4.93;;;;;;;15.82;100.00;98346.94;5070976;28;20040;-36
2023/07/25 03:50:42;;;;;;;8.05;4.82;;;;;;;15.87;100.00;98338.69;5072215;28;20040;-37
2023/07/25 03:53:08;;;;;;;8.02;4.90;;;;;;;15.65;100.00;98303.66;5053403;28;20063;-37
2023/07/25 03:55:34;;;;;;;8.02;4.85;;;;;;;15.69;100.00;98304.28;5071372;28;20040;-37
2023/07/25 03:57:59;;;;;;;7.88;4.88;;;;;;;16.03;100.00;98342.66;5053550;28;20047;-38
2023/07/25 04:00:25;;;;;;;6.60;4.55;;;;;;;16.08;100.00;98348.38;5070109;28;20553;-36
2023/07/25 04:02:51;;;;;;;8.60;5.15;;;;;;;16.20;100.00;98346.56;5069772;28;20083;-37
2023/07/25 04:05:17;;;;;;;6.60;5.15;;;;;;;16.28;100.00;98351.19;5070188;28;20209;-37
2023/07/25 04:07:43;;;;;;;7.80;5.43;;;;;;;16.30;100.00;98352.75;5052664;28;20032;-38
2023/07/25 04:10:09;;;;;;;7.07;5.25;;;;;;;16.07;100.00;98296.03;5070233;28;20111;-37
2023/07/25 04:12:35;;;;;;;7.95;5.90;;;;;;;16.44;100.00;98355.13;5071470;28;20039;-37
2023/07/25 04:15:01;;;;;;;10.75;6.10;;;;;;;16.40;100.00;98342.38;5069211;28;20071;-37
2023/07/25 04:17:27;;;;;;;9.75;6.35;;;;;;;16.64;100.00;98368.50;5069956;28;20040;-36
2023/07/25 04:19:53;;;;;;;8.77;6.20;;;;;;;16.83;100.00;98380.00;5064741;28;20045;-36
2023/07/25 04:22:19;;;;;;;10.23;6.40;;;;;;;17.01;100.00;98375.03;5050013;28;20044;-36
2023/07/25 04:24:45;;;;;;;9.02;6.07;;;;;;;17.17;100.00;98377.25;5070191;28;20490;-36
2023/07/25 04:27:11;;;;;;;7.72;5.75;;;;;;;17.12;100.00;98356.63;5071307;28;20487;-37
2023/07/25 04:29:37;;;;;;;8.23;6.45;;;;;;;17.12;100.00;98375.00;5071028;28;20068;-37
2023/07/25 04:32:03;;;;;;;10.93;6.25;;;;;;;17.05;100.00;98380.91;5069166;28;20041;-37
2023/07/25 04:34:29;;;;;;;12.35;7.30;;;;;;;17.04;100.00;98366.09;5069268;28;20135;-37
2023/07/25 04:36:55;;;;;;;11.23;7.30;;;;;;;17.12;100.00;98382.06;5068999;28;20881;-37
2023/07/25 04:39:21;;;;;;;16.70;7.53;;;;;;;17.25;100.00;98370.44;5068775;28;20032;-37
2023/07/25 04:41:47;;;;;;;13.23;7.90;;;;;;;17.25;100.00;98373.06;5070847;28;20048;-37
2023/07/25 04:44:13;;;;;;;11.73;7.63;;;;;;;17.23;100.00;98364.47;5070496;28;20079;-36
2023/07/25 04:46:39;;;;;;;9.43;6.85;;;;;;;17.31;100.00;98345.44;5069265;28;20098;-37
2023/07/25 04:49:06;;;;;;;11.43;7.68;;;;;;;17.56;100.00;98366.09;5070829;28;20164;-36
2023/07/25 04:51:32;;;;;;;14.65;8.57;;;;;;;17.65;100.00;98341.69;5052543;28;20055;-37
2023/07/25 04:53:58;;;;;;;9.18;6.70;;;;;;;17.92;100.00;98370.06;5048864;28;20032;-36
2023/07/25 04:56:24;;;;;;;8.52;6.50;;;;;;;17.95;100.00;98363.72;5052524;28;20110;-37
2023/07/25 04:58:50;;;;;;;11.65;6.85;;;;;;;17.93;100.00;98366.47;5052602;28;20036;-37
2023/07/25 05:01:16;;;;;;;12.35;7.40;;;;;;;18.02;100.00;98363.03;5069036;28;20494;-36
2023/07/25 05:03:42;;;;;;;10.50;6.72;;;;;;;18.03;100.00;98353.38;5068847;28;20044;-38
2023/07/25 05:06:08;;;;;;;9.10;6.60;;;;;;;17.99;100.00;98360.69;5070596;28;20044;-36
2023/07/25 05:08:34;;;;;;;7.65;6.10;;;;;;;18.02;100.00;98359.59;5068658;28;20037;-37
2023/07/25 05:11:01;;;;;;;8.00;6.10;;;;;;;18.15;100.00;98360.22;5070166;28;20048;-37
2023/07/25 05:13:27;;;;;;;6.57;5.88;;;;;;;18.34;100.00;98368.16;5052586;28;20143;-38
2023/07/25 05:15:53;;;;;;;8.90;5.97;;;;;;;18.43;100.00;98371.78;5068547;28;20464;-36
2023/07/25 05:18:19;;;;;;;12.45;6.60;;;;;;;18.27;100.00;98372.28;5070514;28;20056;-37
2023/07/25 05:20:45;;;;;;;7.13;5.35;;;;;;;18.08;100.00;98372.22;5058761;28;20354;-38
2023/07/25 05:23:11;;;;;;;8.35;6.13;;;;;;;18.03;100.00;98380.50;5068761;28;20048;-37
2023/07/25 05:25:38;;;;;;;9.27;6.70;;;;;;;18.20;100.00;98376.44;5068145;28;20123;-38
2023/07/25 05:28:03;;;;;;;9.40;6.57;;;;;;;18.30;100.00;98377.28;5066812;28;20641;-37
2023/07/25 05:30:30;;;;;;;7.95;5.82;;;;;;;18.29;100.00;98380.06;5069785;28;20068;-37
2023/07/25 05:32:56;;;;;;;8.65;6.82;;;;;;;18.18;100.00;98388.88;5068200;28;20094;-37
2023/07/25 05:35:22;;;;;;;10.05;6.45;;;;;;;18.23;100.00;98375.31;5066248;28;20036;-37
2023/07/25 05:37:48;;;;;;;9.18;6.32;;;;;;;18.50;100.00;98394.81;5070351;28;20113;-37
2023/07/25 05:40:13;;;;;;;8.85;5.75;;;;;;;18.54;100.00;98383.06;5074592;28;20127;-36
2023/07/25 05:42:39;;;;;;;11.10;6.18;;;;;;;18.51;100.00;98362.28;5067805;28;20136;-38
2023/07/25 05:45:05;;;;;;;7.70;6.35;;;;;;;18.69;99.75;98370.34;5068184;28;20131;-37
2023/07/25 05:47:31;;;;;;;7.75;6.15;;;;;;;18.87;99.25;98370.53;5066736;28;20044;-37
2023/07/25 05:49:57;;;;;;;9.23;6.82;;;;;;;19.08;98.14;98389.69;5067329;28;20044;-37
2023/07/25 05:52:23;;;;;;;9.18;6.18;;;;;;;19.31;96.89;98377.91;5068830;28;20044;-37
2023/07/25 05:54:49;;;;;;;9.45;6.10;;;;;;;19.47;96.12;98380.00;5063167;28;20443;-38
2023/07/25 05:57:15;;;;;;;9.35;5.90;;;;;;;19.70;94.55;98386.66;5061364;28;20144;-43
2023/07/25 05:59:43;;;;;;;9.07;6.07;;;;;;;19.78;93.00;98381.47;5033547;28;20424;-38
2023/07/25 06:02:10;;;;;;;6.97;5.93;;;;;;;19.84;92.48;98386.19;5068807;28;20056;-38
2023/07/25 06:04:36;;;;;;;6.05;4.93;;;;;;;20.20;92.05;98392.47;5067816;28;20048;-37
2023/07/25 06:07:02;;;;;;;9.40;5.78;;;;;;;20.57;90.46;98386.34;5050461;28;20036;-39
2023/07/25 06:09:28;;;;;;;8.43;5.93;;;;;;;20.48;88.70;98366.13;5052132;28;20032;-37
2023/07/25 06:11:55;;;;;;;8.98;6.75;;;;;;;20.46;88.22;98387.41;5049141;28;20044;-37
2023/07/25 06:14:21;;;;;;;9.30;5.38;;;;;;;20.59;87.98;98387.88;5061089;28;20048;-37
2023/07/25 06:16:47;;;;;;;7.25;5.13;;;;;;;20.68;86.10;98394.09;5068728;28;20041;-37
2023/07/25 06:19:13;;;;;;;5.70;4.40;;;;;;;20.59;84.78;98381.78;5066455;28;20429;-37
2023/07/25 06:21:39;;;;;;;8.20;4.82;;;;;;;20.87;83.40;98399.28;5068494;28;20041;-37
2023/07/25 06:24:05;;;;;;;8.25;5.15;;;;;;;21.05;81.08;98394.00;5066097;28;20512;-37
2023/07/25 06:26:30;;;;;;;5.20;4.50;;;;;;;20.79;80.56;98393.06;5068660;28;20129;-36
2023/07/25 06:28:56;;;;;;;8.02;4.70;;;;;;;20.79;80.73;98393.06;5069028;28;20044;-36
2023/07/25 06:31:22;;;;;;;6.32;4.38;;;;;;;20.98;79.85;98395.59;5050807;28;20044;-36
2023/07/25 06:33:48;;;;;;;5.82;4.55;;;;;;;21.31;78.05;98368.50;5068443;28;20677;-37
2023/07/25 06:36:14;;;;;;;7.68;4.80;;;;;;;21.60;76.86;98399.16;5060307;28;20076;-37
2023/07/25 06:38:40;;;;;;;6.65;4.30;;;;;;;21.76;75.26;98402.75;5047309;28;20048;-37
2023/07/25 06:41:05;;;;;;;7.38;4.32;;;;;;;22.10;74.58;98409.94;5061049;28;20040;-37
2023/07/25 06:43:31;;;;;;;7.63;4.50;;;;;;;22.85;71.91;98397.75;5061867;28;20048;-37
2023/07/25 06:45:57;;;;;;;5.65;4.70;;;;;;;23.23;68.24;98382.09;5076782;28;20051;-37
2023/07/25 06:48:23;;;;;;;6.30;4.07;;;;;;;23.92;66.78;98391.34;5052748;28;20036;-37
2023/07/25 06:50:49;;;;;;;5.00;4.25;;;;;;;24.66;63.64;98392.81;5058075;28;20122;-39
2023/07/25 06:53:15;;;;;;;6.60;3.83;;;;;;;25.81;61.65;98402.56;5052602;28;20080;-37
2023/07/25 06:55:42;;;;;;;5.65;4.60;;;;;;;26.72;58.80;98407.63;5052855;28;20060;-38
2023/07/25 06:58:08;;;;;;;6.28;4.50;;;;;;;27.40;57.12;98403.69;5058935;28;20063;-37
2023/07/25 07:00:37;;;;;;;5.93;4.03;;;;;;;27.27;55.25;98395.53;5060054;28;20545;-38
2023/07/25 07:03:05;;;;;;;6.35;4.30;;;;;;;27.42;52.29;98404.34;5062181;28;20040;-38
2023/07/25 07:05:34;;;;;;;5.80;4.00;;;;;;;27.71;51.13;98379.34;5065511;28;20088;-38
2023/07/25 07:08:00;;;;;;;4.18;3.53;;;;;;;29.08;49.08;98407.94;5064992;28;20114;-38
2023/07/25 07:10:26;;;;;;;5.88;4.43;;;;;;;29.66;46.75;98395.69;5061230;28;20508;-38
2023/07/25 07:12:53;;;;;;;6.15;4.43;;;;;;;30.13;45.70;98412.63;5066559;28;20043;-38
2023/07/25 07:15:26;;;;;;;8.13;4.15;;;;;;;30.88;43.55;98403.16;5066571;28;20063;-38
2023/07/25 07:17:55;;;;;;;6.63;3.75;;;;;;;29.38;45.61;98403.91;5054852;28;20051;-37
2023/07/25 07:20:21;;;;;;;4.50;3.40;;;;;;;29.81;44.95;98415.06;5062919;28;20036;-37
2023/07/25 07:22:47;;;;;;;4.72;3.28;;;;;;;30.23;43.37;98419.19;5033395;28;20044;-38
2023/07/25 07:25:13;;;;;;;4.13;3.55;;;;;;;31.89;40.57;98415.56;5063488;28;20394;-37
2023/07/25 07:27:39;;;;;;;4.18;3.50;;;;;;;32.37;38.33;98391.53;5064808;28;20509;-37
2023/07/25 07:30:05;;;;;;;4.65;3.40;;;;;;;32.50;37.83;98424.75;5055190;28;20052;-38
2023/07/25 07:32:32;;;;;;;3.92;3.35;;;;;;;33.40;36.49;98409.53;5065673;28;20520;-38
2023/07/25 07:34:58;;;;;;;3.33;2.92;;;;;;;33.45;35.69;98402.41;5066588;28;20048;-38
2023/07/25 07:37:23;;;;;;;4.95;3.30;;;;;;;33.99;35.34;98414.84;5039818;28;20043;-39
2023/07/25 07:39:49;;;;;;;4.38;3.30;;;;;;;33.47;35.38;98421.06;5061385;28;20037;-38
2023/07/25 07:42:15;;;;;;;3.42;3.13;;;;;;;33.58;34.65;98407.59;5026046;28;20623;-39
2023/07/25 07:44:41;;;;;;;6.95;3.95;;;;;;;33.47;34.46;98380.63;5060076;28;20047;-38
2023/07/25 07:47:07;;;;;;;4.93;3.28;;;;;;;34.46;33.58;98398.66;5059972;28;20070;-38
2023/07/25 07:49:34;;;;;;;5.10;3.08;;;;;;;34.46;33.71;98422.94;5062222;28;20623;-38
2023/07/25 07:52:00;;;;;;;3.42;2.88;;;;;;;34.66;32.95;98423.38;5060142;28;20543;-40
2023/07/25 07:54:26;;;;;;;6.28;3.70;;;;;;;35.42;32.16;98424.94;5063205;28;20040;-37
2023/07/25 07:56:52;;;;;;;5.68;3.35;;;;;;;36.37;31.66;98416.81;5044134;28;20060;-38
2023/07/25 07:59:18;;;;;;;4.90;2.65;;;;;;;34.77;31.72;98421.75;5059370;28;20222;-37
2023/07/25 08:01:44;;;;;;;2.88;2.33;;;;;;;33.14;33.55;98410.69;5044639;28;20041;-37
2023/07/25 08:04:11;;;;;;;3.70;2.70;;;;;;;31.21;36.42;98419.94;5058661;28;20431;-38
2023/07/25 08:06:37;;;;;;;5.15;3.00;;;;;;;30.55;37.67;98419.38;5058995;28;20086;-37
2023/07/25 08:09:02;;;;;;;4.72;2.97;;;;;;;31.58;36.61;98420.13;5061237;28;20048;-37
2023/07/25 08:11:28;;;;;;;4.00;2.90;;;;;;;32.91;35.09;98413.31;5059068;28;20052;-37
2023/07/25 08:13:54;;;;;;;3.20;2.90;;;;;;;33.68;33.52;98428.63;5056305;28;20067;-36
2023/07/25 08:16:20;;;;;;;3.70;2.90;;;;;;;35.10;31.65;98434.56;5060984;28;20500;-37
2023/07/25 08:18:46;;;;;;;4.65;3.35;;;;;;;36.17;30.55;98435.44;5062362;28;20052;-37
2023/07/25 08:21:12;;;;;;;3.67;2.83;;;;;;;36.97;29.65;98434.09;5062133;28;20037;-36
2023/07/25 08:23:38;;;;;;;5.20;3.28;;;;;;;37.64;28.90;98432.69;5057238;28;20048;-37
2023/07/25 08:26:03;;;;;;;3.72;3.33;;;;;;;38.16;28.35;98424.72;5045422;28;20047;-37
2023/07/25 08:28:29;;;;;;;7.55;3.45;;;;;;;38.47;26.98;98430.41;5065291;28;20106;-37
2023/07/25 08:31:02;;;;;;;6.78;3.25;;;;;;;38.06;27.11;98423.84;5058233;28;20110;-37
2023/07/25 08:33:37;;;;;;;4.15;3.10;;;;;;;37.55;28.22;98425.28;5060608;28;20476;-36
2023/07/25 08:36:03;;;;;;;3.75;3.03;;;;;;;38.58;27.09;98421.19;5064543;28;20533;-37
2023/07/25 08:38:29;;;;;;;8.73;3.40;;;;;;;39.53;25.75;98425.38;5056500;28;20045;-36
2023/07/25 08:41:04;;;;;;;5.63;3.50;;;;;;;39.63;25.07;98435.44;5067370;28;20429;-37
2023/07/25 08:43:34;;;;;;;5.03;3.00;;;;;;;38.65;26.06;98437.28;5063096;28;20051;-36
2023/07/25 08:46:01;;;;;;;3.53;3.22;;;;;;;37.43;27.66;98428.13;5061095;28;20090;-37
2023/07/25 08:48:28;;;;;;;5.35;3.17;;;;;;;36.48;28.33;98415.06;5084513;28;20044;-37
2023/07/25 08:50:56;;;;;;;5.20;3.28;;;;;;;35.57;29.36;98422.50;5076966;28;20044;-36
2023/07/25 08:53:23;;;;;;;5.90;3.03;;;;;;;37.16;27.88;98427.31;5063749;28;20041;-38
2023/07/25 08:55:51;;;;;;;5.82;3.03;;;;;;;37.81;26.82;98426.34;5073907;28;20064;-38
2023/07/25 08:58:17;;;;;;;;;;;;;;;36.63;27.64;98425.31;5062377;28;20511;-37
2023/07/25 09:00:43;;;;;;;4.82;3.10;;;;;;;35.88;28.75;98428.47;5047704;28;19922;-36
2023/07/25 09:03:10;;;;;;;6.45;2.80;;;;;;;35.60;28.47;98429.31;5050853;28;20123;-38
2023/07/25 09:05:36;;;;;;;2.97;2.58;;;;;;;35.38;28.67;98429.22;5066831;28;20126;-36
2023/07/25 09:08:02;;;;;;;4.43;2.83;;;;;;;36.41;28.16;98423.34;5073231;28;20032;-36
2023/07/25 09:10:28;;;;;;;5.90;2.90;;;;;;;37.27;27.14;98427.16;5067989;28;20060;-38
2023/07/25 09:12:54;;;;;;;3.35;2.58;;;;;;;37.87;26.46;98422.59;5067864;28;20041;-36
2023/07/25 09:15:20;;;;;;;4.47;2.85;;;;;;;37.61;25.96;98432.41;5065889;28;20131;-37
2023/07/25 09:17:46;;;;;;;3.40;2.92;;;;;;;37.60;25.81;98418.03;5036717;28;20127;-37
2023/07/25 09:20:12;;;;;;;4.43;2.42;;;;;;;36.83;26.21;98414.72;5044688;28;20424;-37
2023/07/25 09:22:38;;;;;;;2.53;2.15;;;;;;;36.70;26.71;98421.31;5068740;28;20044;-38
2023/07/25 09:25:08;;;;;;;3.92;2.80;;;;;;;37.03;26.49;98416.84;5070621;28;20562;-38
2023/07/25 09:27:34;;;;;;;3.30;2.50;;;;;;;36.64;26.56;98407.97;5072153;28;20048;-37
2023/07/25 09:30:00;;;;;;;6.88;3.22;;;;;;;36.64;26.58;98403.34;5049771;28;20037;-40
2023/07/25 09:32:28;;;;;;;4.93;2.88;;;;;;;36.03;27.44;98405.16;5032283;28;20049;-34
2023/07/25 09:34:59;;;;;;;2.90;2.60;;;;;;;36.25;26.90;98393.59;5072661;28;20078;-45
2023/07/25 09:37:25;;;;;;;3.55;2.50;;;;;;;35.92;27.38;98403.38;5067167;28;20051;-44
2023/07/25 09:39:51;;;;;;;3.00;2.70;;;;;;;35.32;28.02;98410.44;5055529;28;20555;-44
2023/07/25 09:42:20;;;;;;;4.90;2.75;;;;;;;35.63;27.55;98391.78;5063724;28;20040;-43
2023/07/25 09:44:47;;;;;;;3.22;2.70;;;;;;;35.68;27.29;98412.72;5057415;28;20047;-42
2023/07/25 09:47:14;;;;;;;5.60;2.70;;;;;;;35.41;27.63;98376.53;5067277;28;20040;-43
2023/07/25 09:49:48;;;;;;;5.35;2.90;;;;;;;36.45;27.04;98399.28;5051541;28;20432;-45
2023/07/25 09:52:14;;;;;;;4.40;3.03;;;;;;;37.92;26.03;98400.91;5076559;28;20143;-43
2023/07/25 09:54:41;;;;;;;4.78;2.65;;;;;;;38.50;24.77;98406.25;5055097;28;20033;-45
2023/07/25 09:57:07;;;;;;;3.92;2.58;;;;;;;37.64;25.43;98374.91;5076407;28;20056;-46
2023/07/25 09:59:34;;;;;;;3.42;2.80;;;;;;;36.34;26.42;98379.38;5084539;28;20578;-45
2023/07/25 10:02:00;;;;;;;4.87;3.10;;;;;;;36.21;26.48;98363.53;5068499;28;20040;-43
2023/07/25 10:04:27;;;;;;;3.20;2.90;;;;;;;36.15;27.17;98367.22;5080295;28;20131;-44
2023/07/25 10:06:53;;;;;;;5.10;2.95;;;;;;;37.53;25.81;98375.91;5065609;28;20450;-44
2023/07/25 10:09:19;;;;;;;4.72;3.22;;;;;;;38.22;24.56;98362.31;5068096;28;20397;-43
2023/07/25 10:11:46;;;;;;;3.75;3.33;;;;;;;36.95;25.86;98373.94;5067403;28;20144;-44
2023/07/25 10:14:13;;;;;;;4.80;3.33;;;;;;;35.68;26.76;98374.84;5067190;28;20067;-43
2023/07/25 10:16:39;;;;;;;3.40;3.10;;;;;;;35.65;27.10;98359.06;5082283;28;20044;-43
2023/07/25 10:19:06;;;;;;;4.32;3.22;;;;;;;36.30;26.91;98374.72;5070902;28;20055;-44
2023/07/25 10:21:53;;;;;;;5.55;3.60;;;;;;;37.66;25.39;98383.63;5065246;28;20032;-43
2023/07/25 10:24:20;;;;;;;3.50;3.20;;;;;;;36.40;26.68;98381.09;5065578;28;20089;-44
2023/07/25 10:26:59;;;;;;;5.50;3.70;;;;;;;36.77;26.38;98383.22;5064574;28;20044;-43
2023/07/25 10:29:39;;;;;;;6.25;3.53;;;;;;;37.24;26.28;98381.59;5078882;28;20041;-43
2023/07/25 10:32:05;;;;;;;3.60;3.30;;;;;;;35.67;27.17;98354.28;5056770;28;20044;-43
2023/07/25 10:35:00;;;;;;;6.00;3.58;;;;;;;35.07;27.86;98360.22;5063528;28;20534;-42
2023/07/25 10:37:30;;;;;;;3.85;3.40;;;;;;;36.51;26.52;98388.28;5083097;28;20052;-45
2023/07/25 10:40:03;;;;;;;4.40;3.45;;;;;;;35.47;27.50;98379.06;5057510;28;20036;-45
2023/07/25 10:42:57;;;;;;;3.65;3.13;;;;;;;35.36;27.48;98369.16;5062760;28;20036;-43
2023/07/25 10:45:29;;;;;;;5.60;3.70;;;;;;;35.50;28.06;98388.56;5063316;28;20043;-44
2023/07/25 10:47:58;;;;;;;4.88;3.60;;;;;;;35.64;27.46;98379.88;5070534;28;20048;-43
2023/07/25 10:50:42;;;;;;;4.40;3.05;;;;;;;36.66;26.73;98368.72;5066078;28;20090;-44
2023/07/25 10:53:21;;;;;;;5.15;3.63;;;;;;;35.62;27.92;98376.63;5066220;28;20040;-44
2023/07/25 10:56:06;;;;;;;4.80;3.47;;;;;;;34.89;28.55;98376.63;5078795;28;20059;-46
2023/07/25 10:58:38;;;;;;;3.45;3.15;;;;;;;35.68;27.62;98347.81;5061389;28;20062;-48
2023/07/25 11:01:04;;;;;;;3.85;3.53;;;;;;;36.51;26.85;98360.38;5066372;28;20542;-43
2023/07/25 11:03:30;;;;;;;5.47;3.70;;;;;;;37.98;25.86;98372.75;5046802;28;20045;-50
2023/07/25 11:06:08;;;;;;;4.32;3.92;;;;;;;38.05;25.33;98373.38;5061725;28;20036;-43
2023/07/25 11:08:36;;;;;;;4.68;3.90;;;;;;;38.60;24.75;98382.91;5056123;28;20080;-45
2023/07/25 11:11:03;;;;;;;4.53;4.05;;;;;;;38.49;24.98;98373.91;5061749;28;20041;-43
2023/07/25 11:13:33;;;;;;;3.90;3.50;;;;;;;38.74;24.46;98352.25;5064764;28;20504;-44
2023/07/25 11:16:01;;;;;;;4.57;4.18;;;;;;;39.37;23.89;98374.75;5061890;28;20033;-44
2023/07/25 11:18:27;;;;;;;5.10;3.88;;;;;;;39.21;23.69;98352.13;5061307;28;20057;-42
2023/07/25 11:21:07;;;;;;;5.25;3.78;;;;;;;39.01;23.86;98368.41;5067568;28;20068;-44
2023/07/25 11:23:34;;;;;;;5.70;4.03;;;;;;;39.90;22.97;98367.97;5080460;28;20086;-44
2023/07/25 11:26:02;;;;;;;5.05;3.70;;;;;;;40.79;21.98;98356.28;5062166;28;20043;-43